sensor_id;sensor_type;location;lat;lon;timestamp;pressure;altitude;pressure_sealevel;temperature;humidity
65131;BME280;51709;54.912;8.316;2022-12-11T00:00:07;101092.81;;;-0.19;74.30
65131;BME280;51709;54.912;8.316;2022-12-11T00:05:28;101094.63;;;-0.13;74.29
65131;BME280;51709;54.912;8.316;2022-12-11T00:10:50;101098.03;;;-0.11;74.41
65131;BME280;51709;54.912;8.316;2022-12-11T00:16:11;101099.63;;;-0.15;74.63
65131;BME280;51709;54.912;8.316;2022-12-11T00:21:32;101103.94;;;-0.11;74.45
65131;BME280;51709;54.912;8.316;2022-12-11T00:26:53;101103.22;;;-0.07;74.67
65131;BME280;51709;54.912;8.316;2022-12-11T00:32:13;101093.06;;;-0.08;74.57
65131;BME280;51709;54.912;8.316;2022-12-11T00:37:34;101099.06;;;-0.05;74.55
65131;BME280;51709;54.912;8.316;2022-12-11T00:42:55;101094.75;;;-0.09;74.59
65131;BME280;51709;54.912;8.316;2022-12-11T00:48:17;101094.63;;;-0.13;74.65
65131;BME280;51709;54.912;8.316;2022-12-11T00:53:38;101100.50;;;-0.14;74.79
65131;BME280;51709;54.912;8.316;2022-12-11T00:58:58;101104.72;;;-0.13;74.81
65131;BME280;51709;54.912;8.316;2022-12-11T01:04:19;101106.22;;;-0.20;74.93
65131;BME280;51709;54.912;8.316;2022-12-11T01:09:40;101112.19;;;-0.18;74.91
65131;BME280;51709;54.912;8.316;2022-12-11T01:15:21;101113.91;;;-0.16;74.91
65131;BME280;51709;54.912;8.316;2022-12-11T01:20:42;101117.41;;;-0.10;74.70
65131;BME280;51709;54.912;8.316;2022-12-11T01:26:12;101110.66;;;-0.11;74.66
65131;BME280;51709;54.912;8.316;2022-12-11T01:31:33;101124.84;;;-0.15;74.88
65131;BME280;51709;54.912;8.316;2022-12-11T01:36:53;101114.69;;;-0.18;74.71
65131;BME280;51709;54.912;8.316;2022-12-11T01:42:17;101124.56;;;-0.26;75.14
65131;BME280;51709;54.912;8.316;2022-12-11T01:47:38;101123.69;;;-0.26;75.07
65131;BME280;51709;54.912;8.316;2022-12-11T01:52:58;101114.38;;;-0.29;75.00
65131;BME280;51709;54.912;8.316;2022-12-11T01:58:21;101121.84;;;-0.32;75.19
65131;BME280;51709;54.912;8.316;2022-12-11T02:03:43;101112.59;;;-0.33;74.99
65131;BME280;51709;54.912;8.316;2022-12-11T02:09:08;101106.56;;;-0.38;75.15
65131;BME280;51709;54.912;8.316;2022-12-11T02:31:19;101094.47;;;-0.50;75.27
65131;BME280;51709;54.912;8.316;2022-12-11T02:36:45;101108.78;;;-0.49;75.02
65131;BME280;51709;54.912;8.316;2022-12-11T02:42:10;101098.53;;;-0.55;75.34
65131;BME280;51709;54.912;8.316;2022-12-11T02:47:32;101102.13;;;-0.47;74.85
65131;BME280;51709;54.912;8.316;2022-12-11T02:52:54;101097.09;;;-0.45;74.86
65131;BME280;51709;54.912;8.316;2022-12-11T02:58:25;101089.50;;;-0.47;74.98
65131;BME280;51709;54.912;8.316;2022-12-11T03:03:48;101095.31;;;-0.50;75.01
65131;BME280;51709;54.912;8.316;2022-12-11T03:09:09;101092.81;;;-0.50;74.77
65131;BME280;51709;54.912;8.316;2022-12-11T03:14:30;101095.38;;;-0.47;74.87
65131;BME280;51709;54.912;8.316;2022-12-11T03:20:06;101081.81;;;-0.52;75.06
65131;BME280;51709;54.912;8.316;2022-12-11T03:25:38;101084.31;;;-0.53;75.13
65131;BME280;51709;54.912;8.316;2022-12-11T03:31:11;101090.88;;;-0.58;74.99
65131;BME280;51709;54.912;8.316;2022-12-11T03:36:36;101079.88;;;-0.60;75.08
65131;BME280;51709;54.912;8.316;2022-12-11T03:42:00;101084.81;;;-0.64;75.11
65131;BME280;51709;54.912;8.316;2022-12-11T03:47:24;101086.00;;;-0.52;74.70
65131;BME280;51709;54.912;8.316;2022-12-11T03:52:47;101080.75;;;-0.60;75.10
65131;BME280;51709;54.912;8.316;2022-12-11T03:58:08;101071.03;;;-0.48;74.35
65131;BME280;51709;54.912;8.316;2022-12-11T04:03:29;101065.91;;;-0.49;74.32
65131;BME280;51709;54.912;8.316;2022-12-11T04:08:50;101060.72;;;-0.55;74.62
65131;BME280;51709;54.912;8.316;2022-12-11T04:14:13;101057.19;;;-0.60;74.60
65131;BME280;51709;54.912;8.316;2022-12-11T04:19:52;101060.50;;;-0.63;74.73
65131;BME280;51709;54.912;8.316;2022-12-11T04:25:31;101052.63;;;-0.74;74.85
65131;BME280;51709;54.912;8.316;2022-12-11T04:30:52;101052.69;;;-0.72;74.97
65131;BME280;51709;54.912;8.316;2022-12-11T04:36:13;101050.09;;;-0.74;74.95
65131;BME280;51709;54.912;8.316;2022-12-11T04:41:34;101058.16;;;-0.86;75.08
65131;BME280;51709;54.912;8.316;2022-12-11T04:46:56;101061.50;;;-0.87;75.18
65131;BME280;51709;54.912;8.316;2022-12-11T04:52:17;101057.34;;;-0.85;75.13
65131;BME280;51709;54.912;8.316;2022-12-11T04:57:38;101047.28;;;-0.85;75.07
65131;BME280;51709;54.912;8.316;2022-12-11T05:02:58;101049.69;;;-0.88;75.35
65131;BME280;51709;54.912;8.316;2022-12-11T05:08:20;101046.34;;;-0.88;75.08
65131;BME280;51709;54.912;8.316;2022-12-11T05:13:41;101044.56;;;-0.91;74.99
65131;BME280;51709;54.912;8.316;2022-12-11T05:19:02;101046.94;;;-0.96;75.25
65131;BME280;51709;54.912;8.316;2022-12-11T05:24:23;101050.38;;;-0.94;74.94
65131;BME280;51709;54.912;8.316;2022-12-11T05:29:44;101061.09;;;-1.01;75.13
65131;BME280;51709;54.912;8.316;2022-12-11T05:35:05;101054.28;;;-1.03;74.84
65131;BME280;51709;54.912;8.316;2022-12-11T05:40:26;101052.41;;;-1.11;74.98
65131;BME280;51709;54.912;8.316;2022-12-11T05:45:47;101043.94;;;-1.13;74.78
65131;BME280;51709;54.912;8.316;2022-12-11T05:51:09;101048.78;;;-1.19;74.87
65131;BME280;51709;54.912;8.316;2022-12-11T05:56:32;101042.88;;;-1.19;75.06
65131;BME280;51709;54.912;8.316;2022-12-11T06:01:54;101051.22;;;-1.22;74.94
65131;BME280;51709;54.912;8.316;2022-12-11T06:07:14;101055.34;;;-1.24;74.76
65131;BME280;51709;54.912;8.316;2022-12-11T06:12:35;101055.31;;;-1.26;74.76
65131;BME280;51709;54.912;8.316;2022-12-11T06:17:55;101064.19;;;-1.37;75.17
65131;BME280;51709;54.912;8.316;2022-12-11T06:23:16;101065.03;;;-1.36;75.19
65131;BME280;51709;54.912;8.316;2022-12-11T06:28:37;101063.53;;;-1.31;75.27
65131;BME280;51709;54.912;8.316;2022-12-11T06:33:58;101076.91;;;-1.32;75.03
65131;BME280;51709;54.912;8.316;2022-12-11T06:39:19;101076.28;;;-1.25;74.75
65131;BME280;51709;54.912;8.316;2022-12-11T06:44:40;101069.44;;;-1.29;74.90
65131;BME280;51709;54.912;8.316;2022-12-11T06:50:00;101080.53;;;-1.24;74.79
65131;BME280;51709;54.912;8.316;2022-12-11T06:55:22;101077.00;;;-1.29;75.02
65131;BME280;51709;54.912;8.316;2022-12-11T07:00:42;101076.25;;;-1.27;74.96
65131;BME280;51709;54.912;8.316;2022-12-11T07:06:04;101071.00;;;-1.33;74.98
65131;BME280;51709;54.912;8.316;2022-12-11T07:11:24;101070.69;;;-1.44;74.96
65131;BME280;51709;54.912;8.316;2022-12-11T07:16:45;101067.41;;;-1.67;75.21
65131;BME280;51709;54.912;8.316;2022-12-11T07:22:06;101077.59;;;-1.88;75.63
65131;BME280;51709;54.912;8.316;2022-12-11T07:27:27;101075.44;;;-2.03;75.94
65131;BME280;51709;54.912;8.316;2022-12-11T07:32:48;101072.06;;;-2.04;75.40
65131;BME280;51709;54.912;8.316;2022-12-11T07:38:09;101061.75;;;-2.11;75.33
65131;BME280;51709;54.912;8.316;2022-12-11T07:43:30;101064.00;;;-2.19;75.39
65131;BME280;51709;54.912;8.316;2022-12-11T07:48:51;101058.63;;;-2.30;75.49
65131;BME280;51709;54.912;8.316;2022-12-11T07:54:14;101056.47;;;-2.43;75.67
65131;BME280;51709;54.912;8.316;2022-12-11T07:59:36;101050.28;;;-2.52;75.90
65131;BME280;51709;54.912;8.316;2022-12-11T08:04:56;101055.06;;;-2.59;75.82
65131;BME280;51709;54.912;8.316;2022-12-11T08:10:18;101054.97;;;-2.61;75.78
65131;BME280;51709;54.912;8.316;2022-12-11T08:15:39;101059.38;;;-2.55;75.47
65131;BME280;51709;54.912;8.316;2022-12-11T08:21:07;101060.16;;;-2.56;75.38
65131;BME280;51709;54.912;8.316;2022-12-11T08:26:29;101063.56;;;-2.56;75.54
65131;BME280;51709;54.912;8.316;2022-12-11T08:31:54;101062.28;;;-2.44;75.28
65131;BME280;51709;54.912;8.316;2022-12-11T08:37:14;101063.44;;;-2.35;75.10
65131;BME280;51709;54.912;8.316;2022-12-11T08:42:35;101056.47;;;-2.19;74.97
65131;BME280;51709;54.912;8.316;2022-12-11T08:47:57;101060.03;;;-2.12;74.99
65131;BME280;51709;54.912;8.316;2022-12-11T08:53:18;101063.09;;;-1.97;74.26
65131;BME280;51709;54.912;8.316;2022-12-11T08:58:39;101067.50;;;-1.90;74.31
65131;BME280;51709;54.912;8.316;2022-12-11T09:04:00;101068.03;;;-1.98;74.56
65131;BME280;51709;54.912;8.316;2022-12-11T09:09:21;101069.84;;;-1.96;74.78
65131;BME280;51709;54.912;8.316;2022-12-11T09:14:42;101075.28;;;-1.83;74.39
65131;BME280;51709;54.912;8.316;2022-12-11T09:20:04;101073.41;;;-1.63;74.24
65131;BME280;51709;54.912;8.316;2022-12-11T09:25:25;101064.31;;;-1.60;74.01
65131;BME280;51709;54.912;8.316;2022-12-11T09:30:45;101050.16;;;-1.56;74.09
65131;BME280;51709;54.912;8.316;2022-12-11T09:36:07;101056.31;;;-1.46;74.06
65131;BME280;51709;54.912;8.316;2022-12-11T09:58:42;101045.59;;;-1.13;73.52
65131;BME280;51709;54.912;8.316;2022-12-11T10:04:35;101055.00;;;-1.07;73.66
65131;BME280;51709;54.912;8.316;2022-12-11T10:10:04;101050.94;;;-1.02;73.69
65131;BME280;51709;54.912;8.316;2022-12-11T10:15:39;101052.63;;;-1.03;73.78
65131;BME280;51709;54.912;8.316;2022-12-11T10:21:03;101047.72;;;-0.98;73.82
65131;BME280;51709;54.912;8.316;2022-12-11T10:26:23;101052.66;;;-1.01;73.45
65131;BME280;51709;54.912;8.316;2022-12-11T10:31:56;101038.44;;;-0.99;73.82
65131;BME280;51709;54.912;8.316;2022-12-11T10:37:17;101036.41;;;-0.84;73.57
65131;BME280;51709;54.912;8.316;2022-12-11T10:42:38;101030.81;;;-0.73;73.59
65131;BME280;51709;54.912;8.316;2022-12-11T10:48:09;101030.88;;;-0.70;73.45
65131;BME280;51709;54.912;8.316;2022-12-11T10:53:30;101027.59;;;-0.68;73.67
65131;BME280;51709;54.912;8.316;2022-12-11T10:58:54;101034.50;;;-0.60;73.35
65131;BME280;51709;54.912;8.316;2022-12-11T11:04:35;101029.56;;;-0.57;73.28
65131;BME280;51709;54.912;8.316;2022-12-11T11:15:30;101024.09;;;-0.41;72.89
65131;BME280;51709;54.912;8.316;2022-12-11T11:20:50;101031.06;;;-0.32;72.88
65131;BME280;51709;54.912;8.316;2022-12-11T11:26:12;101024.41;;;-0.30;72.78
65131;BME280;51709;54.912;8.316;2022-12-11T11:31:33;101026.09;;;-0.30;72.99
65131;BME280;51709;54.912;8.316;2022-12-11T11:36:56;101015.69;;;-0.43;73.29
65131;BME280;51709;54.912;8.316;2022-12-11T11:42:23;101007.16;;;-0.47;73.25
65131;BME280;51709;54.912;8.316;2022-12-11T11:47:55;101001.28;;;-0.45;73.33
65131;BME280;51709;54.912;8.316;2022-12-11T11:53:32;100984.25;;;-0.22;72.67
65131;BME280;51709;54.912;8.316;2022-12-11T11:59:13;100977.06;;;0.65;70.74
65131;BME280;51709;54.912;8.316;2022-12-11T12:04:38;100970.16;;;0.98;69.74
65131;BME280;51709;54.912;8.316;2022-12-11T12:10:13;100967.56;;;0.95;69.95
65131;BME280;51709;54.912;8.316;2022-12-11T12:15:38;100979.09;;;0.82;70.40
65131;BME280;51709;54.912;8.316;2022-12-11T12:21:20;100982.13;;;0.67;71.21
65131;BME280;51709;54.912;8.316;2022-12-11T12:33:11;100981.72;;;0.48;72.09
65131;BME280;51709;54.912;8.316;2022-12-11T12:38:53;100997.31;;;0.30;72.58
65131;BME280;51709;54.912;8.316;2022-12-11T12:44:21;101000.53;;;0.24;72.65
65131;BME280;51709;54.912;8.316;2022-12-11T12:49:48;100999.44;;;0.13;72.77
65131;BME280;51709;54.912;8.316;2022-12-11T13:00:39;100993.09;;;-0.05;73.08
65131;BME280;51709;54.912;8.316;2022-12-11T13:06:12;101002.13;;;-0.14;73.29
65131;BME280;51709;54.912;8.316;2022-12-11T13:11:33;100999.63;;;-0.13;73.25
65131;BME280;51709;54.912;8.316;2022-12-11T13:28:31;100991.69;;;0.07;72.71
65131;BME280;51709;54.912;8.316;2022-12-11T13:33:54;101000.75;;;-0.02;73.00
65131;BME280;51709;54.912;8.316;2022-12-11T13:39:18;100989.84;;;-0.01;72.89
65131;BME280;51709;54.912;8.316;2022-12-11T13:44:46;100991.34;;;-0.07;72.98
65131;BME280;51709;54.912;8.316;2022-12-11T13:50:21;100999.81;;;-0.05;73.00
65131;BME280;51709;54.912;8.316;2022-12-11T13:55:43;101001.56;;;-0.03;72.85
65131;BME280;51709;54.912;8.316;2022-12-11T14:01:07;100986.28;;;-0.09;72.91
65131;BME280;51709;54.912;8.316;2022-12-11T14:06:32;100996.25;;;-0.13;73.13
65131;BME280;51709;54.912;8.316;2022-12-11T14:11:54;100994.69;;;-0.08;72.93
65131;BME280;51709;54.912;8.316;2022-12-11T14:17:26;100982.13;;;-0.07;73.08
65131;BME280;51709;54.912;8.316;2022-12-11T14:22:47;100998.13;;;-0.06;72.95
65131;BME280;51709;54.912;8.316;2022-12-11T14:28:17;100995.50;;;-0.09;73.09
65131;BME280;51709;54.912;8.316;2022-12-11T14:33:44;100988.91;;;-0.04;73.17
65131;BME280;51709;54.912;8.316;2022-12-11T14:39:13;100993.25;;;0.02;73.18
65131;BME280;51709;54.912;8.316;2022-12-11T14:44:49;100999.31;;;0.08;73.09
65131;BME280;51709;54.912;8.316;2022-12-11T14:50:26;100994.41;;;0.14;72.90
65131;BME280;51709;54.912;8.316;2022-12-11T14:55:54;100998.81;;;0.22;72.69
65131;BME280;51709;54.912;8.316;2022-12-11T15:01:27;101003.56;;;0.11;72.84
65131;BME280;51709;54.912;8.316;2022-12-11T15:06:49;101002.53;;;0.03;72.92
65131;BME280;51709;54.912;8.316;2022-12-11T15:12:15;101003.34;;;0.02;73.12
65131;BME280;51709;54.912;8.316;2022-12-11T15:17:35;100999.13;;;0.01;73.26
65131;BME280;51709;54.912;8.316;2022-12-11T15:22:59;101007.38;;;-0.07;73.46
65131;BME280;51709;54.912;8.316;2022-12-11T15:28:33;101003.06;;;-0.09;73.43
65131;BME280;51709;54.912;8.316;2022-12-11T15:33:54;101004.75;;;-0.10;73.26
65131;BME280;51709;54.912;8.316;2022-12-11T15:39:15;101008.06;;;-0.12;73.51
65131;BME280;51709;54.912;8.316;2022-12-11T15:44:35;101022.22;;;-0.18;73.66
65131;BME280;51709;54.912;8.316;2022-12-11T15:50:01;101019.06;;;-0.09;73.29
65131;BME280;51709;54.912;8.316;2022-12-11T15:55:27;101015.66;;;-0.11;73.41
65131;BME280;51709;54.912;8.316;2022-12-11T16:00:54;101010.69;;;-0.08;73.43
65131;BME280;51709;54.912;8.316;2022-12-11T16:06:15;101010.81;;;-0.03;73.21
65131;BME280;51709;54.912;8.316;2022-12-11T16:11:35;101010.84;;;-0.02;73.74
65131;BME280;51709;54.912;8.316;2022-12-11T16:16:56;101001.78;;;0.07;73.58
65131;BME280;51709;54.912;8.316;2022-12-11T16:22:19;101009.50;;;0.11;73.28
65131;BME280;51709;54.912;8.316;2022-12-11T16:27:40;101007.69;;;0.06;73.49
65131;BME280;51709;54.912;8.316;2022-12-11T16:33:02;101000.84;;;0.03;73.49
65131;BME280;51709;54.912;8.316;2022-12-11T16:38:31;101002.53;;;0.03;73.44
65131;BME280;51709;54.912;8.316;2022-12-11T16:43:52;101000.91;;;0.05;73.51
65131;BME280;51709;54.912;8.316;2022-12-11T16:49:13;101008.41;;;0.02;73.57
65131;BME280;51709;54.912;8.316;2022-12-11T16:54:34;101001.56;;;-0.03;73.78
65131;BME280;51709;54.912;8.316;2022-12-11T16:59:54;101000.72;;;-0.03;73.78
65131;BME280;51709;54.912;8.316;2022-12-11T17:05:15;101009.94;;;-0.04;73.82
65131;BME280;51709;54.912;8.316;2022-12-11T17:10:40;101011.66;;;-0.03;73.89
65131;BME280;51709;54.912;8.316;2022-12-11T17:16:15;101004.06;;;-0.04;73.84
65131;BME280;51709;54.912;8.316;2022-12-11T17:21:35;101025.06;;;-0.05;73.86
65131;BME280;51709;54.912;8.316;2022-12-11T17:26:56;101032.50;;;-0.10;74.01
65131;BME280;51709;54.912;8.316;2022-12-11T17:32:16;101029.09;;;-0.12;73.93
65131;BME280;51709;54.912;8.316;2022-12-11T17:37:37;101027.16;;;-0.21;74.13
65131;BME280;51709;54.912;8.316;2022-12-11T17:42:58;101024.53;;;-0.25;74.18
65131;BME280;51709;54.912;8.316;2022-12-11T17:48:20;101017.78;;;-0.26;74.15
65131;BME280;51709;54.912;8.316;2022-12-11T17:53:43;101026.25;;;-0.24;74.14
65131;BME280;51709;54.912;8.316;2022-12-11T17:59:04;101038.00;;;-0.25;73.98
65131;BME280;51709;54.912;8.316;2022-12-11T18:04:24;101032.22;;;-0.21;73.84
65131;BME280;51709;54.912;8.316;2022-12-11T18:09:45;101033.03;;;-0.22;74.04
65131;BME280;51709;54.912;8.316;2022-12-11T18:15:06;101031.28;;;-0.24;74.21
65131;BME280;51709;54.912;8.316;2022-12-11T18:20:30;101038.94;;;-0.21;74.09
65131;BME280;51709;54.912;8.316;2022-12-11T18:25:51;101041.47;;;-0.21;74.01
65131;BME280;51709;54.912;8.316;2022-12-11T18:31:12;101040.41;;;-0.29;74.12
65131;BME280;51709;54.912;8.316;2022-12-11T18:36:33;101045.28;;;-0.36;74.34
65131;BME280;51709;54.912;8.316;2022-12-11T18:41:54;101043.44;;;-0.41;74.50
65131;BME280;51709;54.912;8.316;2022-12-11T18:47:34;101044.16;;;-0.45;74.41
65131;BME280;51709;54.912;8.316;2022-12-11T18:52:56;101034.94;;;-0.45;74.49
65131;BME280;51709;54.912;8.316;2022-12-11T18:58:18;101037.38;;;-0.48;74.50
65131;BME280;51709;54.912;8.316;2022-12-11T19:03:39;101040.63;;;-0.52;74.45
65131;BME280;51709;54.912;8.316;2022-12-11T19:09:00;101032.19;;;-0.54;74.48
65131;BME280;51709;54.912;8.316;2022-12-11T19:14:20;101035.56;;;-0.52;74.26
65131;BME280;51709;54.912;8.316;2022-12-11T19:19:41;101039.63;;;-0.59;74.54
65131;BME280;51709;54.912;8.316;2022-12-11T19:25:05;101040.41;;;-0.60;74.51
65131;BME280;51709;54.912;8.316;2022-12-11T19:30:26;101038.78;;;-0.58;74.41
65131;BME280;51709;54.912;8.316;2022-12-11T19:35:47;101047.19;;;-0.59;74.41
65131;BME280;51709;54.912;8.316;2022-12-11T19:41:13;101057.88;;;-0.66;74.50
65131;BME280;51709;54.912;8.316;2022-12-11T19:46:34;101061.78;;;-0.76;74.73
65131;BME280;51709;54.912;8.316;2022-12-11T19:51:55;101062.19;;;-0.91;75.09
65131;BME280;51709;54.912;8.316;2022-12-11T19:57:16;101059.53;;;-0.96;74.95
65131;BME280;51709;54.912;8.316;2022-12-11T20:02:36;101051.69;;;-1.06;74.92
65131;BME280;51709;54.912;8.316;2022-12-11T20:07:57;101053.91;;;-1.16;74.92
65131;BME280;51709;54.912;8.316;2022-12-11T20:13:39;101073.78;;;-1.25;75.08
65131;BME280;51709;54.912;8.316;2022-12-11T20:19:04;101081.03;;;-1.34;75.41
65131;BME280;51709;54.912;8.316;2022-12-11T20:24:25;101079.34;;;-1.35;75.27
65131;BME280;51709;54.912;8.316;2022-12-11T20:29:45;101074.25;;;-1.37;75.30
65131;BME280;51709;54.912;8.316;2022-12-11T20:35:06;101075.63;;;-1.47;75.37
65131;BME280;51709;54.912;8.316;2022-12-11T20:40:27;101075.63;;;-1.47;75.37
65131;BME280;51709;54.912;8.316;2022-12-11T20:45:48;101076.97;;;-1.57;75.53
65131;BME280;51709;54.912;8.316;2022-12-11T20:51:11;101080.09;;;-1.64;75.39
65131;BME280;51709;54.912;8.316;2022-12-11T20:56:32;101080.25;;;-1.59;75.26
65131;BME280;51709;54.912;8.316;2022-12-11T21:01:53;101083.13;;;-1.74;75.23
65131;BME280;51709;54.912;8.316;2022-12-11T21:07:13;101085.38;;;-1.82;75.28
65131;BME280;51709;54.912;8.316;2022-12-11T21:12:34;101088.31;;;-1.94;75.34
65131;BME280;51709;54.912;8.316;2022-12-11T21:17:57;101085.59;;;-2.00;75.47
65131;BME280;51709;54.912;8.316;2022-12-11T21:23:18;101081.38;;;-2.01;75.42
65131;BME280;51709;54.912;8.316;2022-12-11T21:28:38;101083.63;;;-2.09;75.57
65131;BME280;51709;54.912;8.316;2022-12-11T21:33:59;101076.69;;;-2.16;75.80
65131;BME280;51709;54.912;8.316;2022-12-11T21:39:20;101081.66;;;-2.18;75.56
65131;BME280;51709;54.912;8.316;2022-12-11T21:44:40;101085.94;;;-2.15;75.41
65131;BME280;51709;54.912;8.316;2022-12-11T21:50:22;101074.69;;;-2.25;75.63
65131;BME280;51709;54.912;8.316;2022-12-11T21:55:42;101068.34;;;-2.15;75.45
65131;BME280;51709;54.912;8.316;2022-12-11T22:01:04;101078.25;;;-2.20;75.69
65131;BME280;51709;54.912;8.316;2022-12-11T22:06:26;101073.22;;;-2.20;75.67
65131;BME280;51709;54.912;8.316;2022-12-11T22:11:46;101082.41;;;-2.20;75.68
65131;BME280;51709;54.912;8.316;2022-12-11T22:17:07;101089.13;;;-2.19;75.82
65131;BME280;51709;54.912;8.316;2022-12-11T22:22:28;101096.91;;;-2.13;75.67
65131;BME280;51709;54.912;8.316;2022-12-11T22:27:49;101097.72;;;-2.14;75.42
65131;BME280;51709;54.912;8.316;2022-12-11T22:33:11;101093.63;;;-2.10;75.39
65131;BME280;51709;54.912;8.316;2022-12-11T22:38:32;101093.63;;;-2.10;76.06
65131;BME280;51709;54.912;8.316;2022-12-11T22:43:53;101085.22;;;-2.11;75.67
65131;BME280;51709;54.912;8.316;2022-12-11T22:49:14;101097.41;;;-1.97;75.43
65131;BME280;51709;54.912;8.316;2022-12-11T22:54:39;101095.03;;;-1.94;75.47
65131;BME280;51709;54.912;8.316;2022-12-11T23:00:00;101099.63;;;-1.82;75.38
65131;BME280;51709;54.912;8.316;2022-12-11T23:05:21;101104.91;;;-1.75;75.22
65131;BME280;51709;54.912;8.316;2022-12-11T23:10:42;101110.25;;;-1.65;75.22
65131;BME280;51709;54.912;8.316;2022-12-11T23:16:03;101096.16;;;-1.60;74.91
65131;BME280;51709;54.912;8.316;2022-12-11T23:21:25;101097.91;;;-1.58;75.10
65131;BME280;51709;54.912;8.316;2022-12-11T23:26:46;101103.91;;;-1.54;75.03
65131;BME280;51709;54.912;8.316;2022-12-11T23:32:07;101100.03;;;-1.44;74.89
65131;BME280;51709;54.912;8.316;2022-12-11T23:37:28;101099.06;;;-1.48;74.78
65131;BME280;51709;54.912;8.316;2022-12-11T23:42:48;101096.44;;;-1.51;75.01
65131;BME280;51709;54.912;8.316;2022-12-11T23:48:11;101090.44;;;-1.56;75.32
65131;BME280;51709;54.912;8.316;2022-12-11T23:53:32;101097.91;;;-1.58;75.16
65131;BME280;51709;54.912;8.316;2022-12-11T23:58:53;101112.16;;;-1.58;75.32
